Time;durP1;ratioP1;P1;durP2;ratioP2;P2;SDS_P1;SDS_P2;PMS_P1;PMS_P2;Temp;Humidity;BMP_temperature;BMP_pressure;BME280_temperature;BME280_humidity;BME280_pressure;Samples;Min_cycle;Max_cycle;Signal;HPM_P1;HPM_P2
2023/12/19 00:02:05;;;;;;;24.85;14.05;;;1.50;99.90;;;;;;5011721;28;20253;-59
2023/12/19 00:04:36;;;;;;;21.15;11.85;;;1.50;99.90;;;;;;5008391;28;20053;-56
2023/12/19 00:07:03;;;;;;;21.27;13.15;;;1.50;99.90;;;;;;5011039;28;20137;-54
2023/12/19 00:09:30;;;;;;;21.77;12.02;;;1.60;99.90;;;;;;5013165;28;20088;-57
2023/12/19 00:11:57;;;;;;;20.40;12.35;;;1.60;99.90;;;;;;5016608;28;20472;-57
2023/12/19 00:14:24;;;;;;;23.33;12.45;;;1.60;99.90;;;;;;5039190;28;20090;-58
2023/12/19 00:16:51;;;;;;;20.67;11.95;;;1.60;99.90;;;;;;5017119;28;20041;-56
2023/12/19 00:19:18;;;;;;;22.20;12.68;;;1.50;99.90;;;;;;5006365;28;20058;-55
2023/12/19 00:21:45;;;;;;;22.48;12.60;;;1.50;99.90;;;;;;5017592;28;20124;-51
2023/12/19 00:24:12;;;;;;;20.83;12.70;;;1.50;99.90;;;;;;5011897;28;20467;-53
2023/12/19 00:26:39;;;;;;;28.42;15.27;;;1.50;99.90;;;;;;5012913;28;20414;-59
2023/12/19 00:29:06;;;;;;;21.38;12.20;;;1.40;99.90;;;;;;5013464;28;20137;-54
2023/12/19 00:31:33;;;;;;;21.55;11.88;;;1.40;99.90;;;;;;5004913;28;20041;-56
2023/12/19 00:34:01;;;;;;;19.10;12.23;;;1.40;99.90;;;;;;5012177;28;20057;-58
2023/12/19 00:36:28;;;;;;;21.05;12.13;;;1.50;99.90;;;;;;5017738;28;20426;-56
2023/12/19 00:38:56;;;;;;;22.10;12.05;;;1.50;99.90;;;;;;5015999;28;20054;-55
2023/12/19 00:41:23;;;;;;;21.98;12.85;;;1.50;99.90;;;;;;5038540;28;20140;-54
2023/12/19 00:43:50;;;;;;;20.45;12.93;;;1.40;99.90;;;;;;5013672;28;20061;-55
2023/12/19 00:46:17;;;;;;;23.08;13.43;;;1.40;99.90;;;;;;5018745;28;20637;-57
2023/12/19 00:48:44;;;;;;;19.70;11.45;;;1.40;99.90;;;;;;5013369;28;20038;-55
2023/12/19 00:51:11;;;;;;;19.50;11.25;;;1.30;99.90;;;;;;5016018;28;20056;-56
2023/12/19 00:53:39;;;;;;;20.98;12.32;;;1.30;99.90;;;;;;5005589;28;20060;-55
2023/12/19 00:56:09;;;;;;;22.05;12.38;;;1.20;99.90;;;;;;5020654;28;20520;-55
2023/12/19 00:58:37;;;;;;;21.75;12.77;;;1.20;99.90;;;;;;5003904;28;20056;-56
2023/12/19 01:01:05;;;;;;;21.15;12.30;;;1.20;99.90;;;;;;5011891;28;20084;-59
2023/12/19 01:03:34;;;;;;;20.13;11.48;;;1.10;99.90;;;;;;5008057;28;20045;-53
2023/12/19 01:06:02;;;;;;;20.42;12.27;;;1.10;99.90;;;;;;5007811;28;20164;-58
2023/12/19 01:08:30;;;;;;;22.58;13.20;;;1.00;99.90;;;;;;5011096;28;20429;-54
2023/12/19 01:10:58;;;;;;;23.35;14.30;;;1.00;99.90;;;;;;5008528;28;20048;-53
2023/12/19 01:13:25;;;;;;;22.05;12.35;;;1.00;99.90;;;;;;5035532;28;20042;-54
2023/12/19 01:15:52;;;;;;;20.45;11.90;;;1.00;99.90;;;;;;4996281;28;20046;-55
2023/12/19 01:18:19;;;;;;;18.67;11.55;;;1.00;99.90;;;;;;5012896;28;20447;-53
2023/12/19 01:20:47;;;;;;;21.58;12.70;;;1.00;99.90;;;;;;5017732;28;20124;-52
2023/12/19 01:23:15;;;;;;;19.73;12.25;;;1.00;99.90;;;;;;5015870;28;20060;-50
2023/12/19 01:25:43;;;;;;;21.42;11.98;;;1.00;99.90;;;;;;5015250;28;20064;-57
2023/12/19 01:28:11;;;;;;;21.98;12.93;;;1.00;99.90;;;;;;5017844;28;20129;-54
2023/12/19 01:30:40;;;;;;;20.17;12.20;;;1.10;99.90;;;;;;5018878;28;20547;-54
2023/12/19 01:33:08;;;;;;;20.75;11.65;;;1.10;99.90;;;;;;5015716;28;20060;-56
2023/12/19 01:35:36;;;;;;;21.63;12.18;;;1.20;99.90;;;;;;5018485;28;20054;-56
2023/12/19 01:38:03;;;;;;;18.88;12.52;;;1.30;99.90;;;;;;5011581;28;20063;-54
2023/12/19 01:40:34;;;;;;;20.70;12.43;;;1.40;99.90;;;;;;5013960;28;20045;-53
2023/12/19 01:43:01;;;;;;;17.30;10.82;;;1.50;99.90;;;;;;5017617;28;20049;-57
2023/12/19 01:45:29;;;;;;;21.13;11.48;;;1.60;99.90;;;;;;5036611;28;20487;-57
2023/12/19 01:47:57;;;;;;;20.20;11.35;;;1.70;99.90;;;;;;5017964;28;20494;-52
2023/12/19 01:50:24;;;;;;;19.63;11.75;;;1.80;99.90;;;;;;5011662;28;20554;-54
2023/12/19 01:52:54;;;;;;;19.35;11.38;;;1.80;99.90;;;;;;4998336;28;20049;-52
2023/12/19 01:55:24;;;;;;;19.08;11.18;;;1.90;99.90;;;;;;5014756;28;20490;-51
2023/12/19 01:57:51;;;;;;;19.50;11.85;;;2.00;99.90;;;;;;5020473;28;20048;-51
2023/12/19 02:00:19;;;;;;;18.10;11.20;;;1.90;99.90;;;;;;5020577;28;20470;-57
2023/12/19 02:02:50;;;;;;;18.17;10.82;;;1.90;99.90;;;;;;5018858;28;20058;-57
2023/12/19 02:05:17;;;;;;;17.90;10.40;;;2.00;99.90;;;;;;5009388;28;20058;-56
2023/12/19 02:07:45;;;;;;;17.67;10.82;;;1.90;99.90;;;;;;5015516;28;20099;-55
2023/12/19 02:10:13;;;;;;;19.30;11.48;;;2.00;99.90;;;;;;5013740;28;20049;-58
2023/12/19 02:12:42;;;;;;;17.25;10.88;;;2.10;99.90;;;;;;5011086;28;20142;-59
2023/12/19 02:15:10;;;;;;;17.17;10.93;;;2.10;99.90;;;;;;5018264;28;20046;-56
2023/12/19 02:17:38;;;;;;;17.73;10.52;;;2.20;99.90;;;;;;5010836;28;20054;-54
2023/12/19 02:20:06;;;;;;;19.60;10.32;;;2.30;99.90;;;;;;5018602;28;20073;-51
2023/12/19 02:22:33;;;;;;;16.73;11.00;;;2.30;99.90;;;;;;5016754;28;20529;-58
2023/12/19 02:25:00;;;;;;;17.98;10.48;;;2.40;99.90;;;;;;5015224;28;20068;-53
2023/12/19 02:27:28;;;;;;;19.98;10.73;;;2.40;99.90;;;;;;5015561;28;20057;-54
2023/12/19 02:29:55;;;;;;;16.63;10.13;;;2.40;99.90;;;;;;5015593;28;20501;-53
2023/12/19 02:32:22;;;;;;;16.98;10.82;;;2.40;99.90;;;;;;5009341;28;20033;-57
2023/12/19 02:34:49;;;;;;;15.90;10.00;;;2.40;99.90;;;;;;5018313;28;20506;-55
2023/12/19 02:37:17;;;;;;;14.77;9.77;;;2.40;99.90;;;;;;5023858;28;20074;-52
2023/12/19 02:39:44;;;;;;;15.43;10.07;;;2.40;99.90;;;;;;5029960;28;20053;-53
2023/12/19 02:42:11;;;;;;;18.02;10.20;;;2.40;99.90;;;;;;5026253;28;20587;-57
2023/12/19 02:44:38;;;;;;;16.30;10.13;;;2.40;99.90;;;;;;5023449;28;20041;-54
2023/12/19 02:47:05;;;;;;;19.35;11.00;;;2.40;99.90;;;;;;5013121;28;20216;-58
2023/12/19 02:49:33;;;;;;;16.77;9.95;;;2.30;99.90;;;;;;5020750;28;20057;-54
2023/12/19 02:52:00;;;;;;;20.67;10.90;;;2.30;99.90;;;;;;5015623;28;20052;-59
2023/12/19 02:54:28;;;;;;;16.67;10.43;;;2.30;99.90;;;;;;5039232;28;20049;-58
2023/12/19 02:56:55;;;;;;;15.18;9.75;;;2.30;99.90;;;;;;5014243;28;20050;-56
2023/12/19 02:59:22;;;;;;;15.25;9.70;;;2.30;99.90;;;;;;5018229;28;20050;-55
2023/12/19 03:01:49;;;;;;;16.55;10.88;;;2.30;99.90;;;;;;5016547;28;20522;-57
2023/12/19 03:04:16;;;;;;;18.30;10.75;;;2.30;99.90;;;;;;5014522;28;20056;-57
2023/12/19 03:06:44;;;;;;;17.23;10.05;;;2.30;99.90;;;;;;5012195;28;20050;-55
2023/12/19 03:09:11;;;;;;;16.00;10.35;;;2.20;99.90;;;;;;5014389;28;20490;-55
2023/12/19 03:11:39;;;;;;;16.60;9.82;;;2.30;99.90;;;;;;5016078;28;20391;-56
2023/12/19 03:14:06;;;;;;;15.63;9.95;;;2.30;99.90;;;;;;5015374;28;20045;-55
2023/12/19 03:16:33;;;;;;;17.80;10.15;;;2.30;99.90;;;;;;5009610;28;20124;-56
2023/12/19 03:19:01;;;;;;;16.70;9.90;;;2.30;99.90;;;;;;5012303;28;20568;-55
2023/12/19 03:21:28;;;;;;;15.52;10.02;;;2.30;99.90;;;;;;5016308;28;20162;-56
2023/12/19 03:23:55;;;;;;;17.58;10.35;;;2.30;99.90;;;;;;5013157;28;20088;-54
2023/12/19 03:26:22;;;;;;;15.43;10.18;;;2.40;99.90;;;;;;5009774;28;20050;-57
2023/12/19 03:28:49;;;;;;;16.17;9.25;;;2.40;99.90;;;;;;5015875;28;20049;-58
2023/12/19 03:31:19;;;;;;;17.88;10.27;;;2.40;99.90;;;;;;5008739;28;20038;-57
2023/12/19 03:33:46;;;;;;;15.00;9.68;;;2.40;99.90;;;;;;5011972;28;20045;-52
2023/12/19 03:36:13;;;;;;;18.88;10.88;;;2.40;99.90;;;;;;5017457;28;20046;-54
2023/12/19 03:38:41;;;;;;;16.83;9.63;;;2.40;99.90;;;;;;5009780;28;20471;-57
2023/12/19 03:41:08;;;;;;;16.58;10.07;;;2.40;99.90;;;;;;5019005;28;20352;-55
2023/12/19 03:43:35;;;;;;;18.42;10.90;;;2.40;99.90;;;;;;5016125;28;20061;-56
2023/12/19 03:46:04;;;;;;;17.02;10.13;;;2.40;99.90;;;;;;5015291;28;20045;-53
2023/12/19 03:48:31;;;;;;;18.13;10.50;;;2.40;99.90;;;;;;5017923;28;20511;-56
2023/12/19 03:50:59;;;;;;;19.25;10.70;;;2.40;99.90;;;;;;5019674;28;20063;-58
2023/12/19 03:53:27;;;;;;;16.77;10.07;;;2.40;99.90;;;;;;5016854;28;20064;-58
2023/12/19 03:55:55;;;;;;;16.75;10.63;;;2.40;99.90;;;;;;5015419;28;20107;-59
2023/12/19 03:58:22;;;;;;;16.05;9.48;;;2.40;99.90;;;;;;5007688;28;20056;-56
2023/12/19 04:00:49;;;;;;;17.42;10.38;;;2.40;99.90;;;;;;5011562;28;20153;-58
2023/12/19 04:03:16;;;;;;;18.30;10.15;;;2.40;99.90;;;;;;5016410;28;20059;-54
2023/12/19 04:05:43;;;;;;;17.98;10.18;;;2.40;99.90;;;;;;5016304;28;20057;-57
2023/12/19 04:08:10;;;;;;;15.13;9.90;;;2.40;99.90;;;;;;5005233;28;20041;-57
2023/12/19 04:10:37;;;;;;;16.77;10.45;;;2.40;99.90;;;;;;5014261;28;20045;-57
2023/12/19 04:13:04;;;;;;;14.95;9.75;;;2.30;99.90;;;;;;5013093;28;20042;-56
2023/12/19 04:15:32;;;;;;;15.93;10.05;;;2.20;99.90;;;;;;5016945;28;20537;-55
2023/12/19 04:18:00;;;;;;;17.60;9.65;;;2.10;99.90;;;;;;5012437;28;20053;-56
2023/12/19 04:20:27;;;;;;;14.90;9.95;;;2.10;99.90;;;;;;5019418;28;20045;-57
2023/12/19 04:22:54;;;;;;;15.40;8.98;;;2.20;99.90;;;;;;5012198;28;20112;-54
2023/12/19 04:25:21;;;;;;;16.10;9.77;;;2.20;99.90;;;;;;5012291;28;20050;-60
2023/12/19 04:27:48;;;;;;;15.82;9.77;;;2.10;99.90;;;;;;5017936;28;20053;-52
2023/12/19 04:30:15;;;;;;;15.45;10.30;;;2.10;99.90;;;;;;5017197;28;20526;-55
2023/12/19 04:32:42;;;;;;;15.60;9.55;;;2.10;99.90;;;;;;5016965;28;20068;-55
2023/12/19 04:35:10;;;;;;;16.25;10.55;;;2.00;99.90;;;;;;5005929;28;20047;-59
2023/12/19 04:37:37;;;;;;;17.55;10.63;;;2.00;99.90;;;;;;5014578;28;20049;-56
2023/12/19 04:40:05;;;;;;;17.13;10.00;;;2.00;99.90;;;;;;5011484;28;20061;-55
2023/12/19 04:42:32;;;;;;;18.42;10.55;;;1.90;99.90;;;;;;5009598;28;20112;-53
2023/12/19 04:44:59;;;;;;;18.27;10.73;;;1.80;99.90;;;;;;5009571;28;20056;-52
2023/12/19 04:47:27;;;;;;;17.70;10.75;;;1.70;99.90;;;;;;5020669;28;20073;-56
2023/12/19 04:49:55;;;;;;;17.80;10.65;;;1.70;99.90;;;;;;5018697;28;20061;-54
2023/12/19 04:52:22;;;;;;;17.13;10.48;;;1.70;99.90;;;;;;5016780;28;20073;-57
2023/12/19 04:54:49;;;;;;;16.42;10.15;;;1.70;99.90;;;;;;5016150;28;20045;-53
2023/12/19 04:57:16;;;;;;;16.17;9.90;;;1.80;99.90;;;;;;5012548;28;20061;-53
2023/12/19 04:59:43;;;;;;;18.90;10.18;;;1.80;99.90;;;;;;5017222;28;20049;-59
2023/12/19 05:02:10;;;;;;;19.33;10.27;;;1.70;99.90;;;;;;5020061;28;20136;-51
2023/12/19 05:04:37;;;;;;;16.95;10.57;;;1.70;99.90;;;;;;5020065;28;20414;-56
2023/12/19 05:07:04;;;;;;;15.73;10.30;;;1.60;99.90;;;;;;5015373;28;20050;-59
2023/12/19 05:09:32;;;;;;;15.63;10.40;;;1.60;99.90;;;;;;5019184;28;20125;-54
2023/12/19 05:12:00;;;;;;;16.65;10.25;;;1.60;99.90;;;;;;5014947;28;20087;-54
2023/12/19 05:14:27;;;;;;;16.50;10.13;;;1.60;99.90;;;;;;5023418;28;20037;-55
2023/12/19 05:16:54;;;;;;;16.88;9.90;;;1.70;99.90;;;;;;5008446;28;20046;-54
2023/12/19 05:19:21;;;;;;;19.52;10.50;;;1.70;99.90;;;;;;5027362;28;20068;-54
2023/12/19 05:21:48;;;;;;;15.82;10.27;;;1.70;99.90;;;;;;5015150;28;20172;-55
2023/12/19 05:24:16;;;;;;;18.15;10.80;;;1.70;99.90;;;;;;5015079;28;20236;-54
2023/12/19 05:26:43;;;;;;;18.88;11.23;;;1.70;99.90;;;;;;5010520;28;20050;-55
2023/12/19 05:29:10;;;;;;;16.83;10.02;;;1.70;99.90;;;;;;5016015;28;20053;-52
2023/12/19 05:31:37;;;;;;;17.67;10.38;;;1.70;99.90;;;;;;5018484;28;20048;-57
2023/12/19 05:34:04;;;;;;;19.95;10.75;;;1.70;99.90;;;;;;5018386;28;20443;-54
2023/12/19 05:36:34;;;;;;;19.58;11.20;;;1.80;99.90;;;;;;5018244;28;20383;-55
2023/12/19 05:39:06;;;;;;;17.92;11.00;;;1.70;99.90;;;;;;5016784;28;20045;-55
2023/12/19 05:41:34;;;;;;;17.80;10.18;;;1.80;99.90;;;;;;5017464;28;20045;-54
2023/12/19 05:44:01;;;;;;;17.38;9.93;;;1.80;99.90;;;;;;5005719;28;20046;-54
2023/12/19 05:46:28;;;;;;;18.15;9.85;;;1.90;99.90;;;;;;5021742;28;20057;-53
2023/12/19 05:48:56;;;;;;;17.58;10.23;;;1.90;99.90;;;;;;5012236;28;20129;-53
2023/12/19 05:51:24;;;;;;;17.63;10.32;;;1.90;99.90;;;;;;5019325;28;20535;-54
2023/12/19 05:53:51;;;;;;;19.27;10.80;;;1.90;99.90;;;;;;5012626;28;20057;-58
2023/12/19 05:56:19;;;;;;;17.73;10.27;;;2.00;99.90;;;;;;5016529;28;20050;-55
2023/12/19 05:58:46;;;;;;;16.80;10.52;;;2.00;99.90;;;;;;5004188;28;20042;-54
2023/12/19 06:01:14;;;;;;;15.65;9.82;;;2.00;99.90;;;;;;5012077;28;20044;-55
2023/12/19 06:03:42;;;;;;;20.13;10.55;;;1.90;99.90;;;;;;5018023;28;20410;-53
2023/12/19 06:06:13;;;;;;;17.30;10.55;;;2.00;99.90;;;;;;5014367;28;20042;-58
2023/12/19 06:08:42;;;;;;;20.10;12.13;;;2.00;99.90;;;;;;5012137;28;20050;-56
2023/12/19 06:11:10;;;;;;;18.45;11.48;;;2.00;99.90;;;;;;5018263;28;20093;-54
2023/12/19 06:13:37;;;;;;;21.33;12.23;;;2.00;99.90;;;;;;5003896;28;20048;-54
2023/12/19 06:16:05;;;;;;;21.23;11.55;;;2.00;99.90;;;;;;5018386;28;20102;-50
2023/12/19 06:18:32;;;;;;;19.63;10.80;;;2.00;99.90;;;;;;5018434;28;20044;-54
2023/12/19 06:21:00;;;;;;;19.40;10.98;;;2.00;99.90;;;;;;5018393;28;20049;-52
2023/12/19 06:23:28;;;;;;;17.20;10.27;;;2.10;99.90;;;;;;5013594;28;20063;-57
2023/12/19 06:25:55;;;;;;;18.83;10.60;;;2.10;99.90;;;;;;5010913;28;20085;-57
2023/12/19 06:28:23;;;;;;;17.33;9.90;;;2.10;99.90;;;;;;5039234;28;20112;-59
2023/12/19 06:30:50;;;;;;;16.00;9.95;;;2.10;99.90;;;;;;5013211;28;20044;-52
2023/12/19 06:33:17;;;;;;;16.85;9.93;;;2.10;99.90;;;;;;5013979;28;20109;-56
2023/12/19 06:35:51;;;;;;;15.75;9.50;;;2.10;99.90;;;;;;5016153;28;20426;-56
2023/12/19 06:38:18;;;;;;;16.85;10.18;;;2.10;99.90;;;;;;5032275;28;20034;-53
2023/12/19 06:40:46;;;;;;;17.23;9.93;;;2.10;99.90;;;;;;5007262;28;20056;-59
2023/12/19 06:43:13;;;;;;;17.40;10.65;;;2.10;99.90;;;;;;5011354;28;20218;-53
2023/12/19 06:45:40;;;;;;;19.67;9.98;;;2.10;99.90;;;;;;5006840;28;20454;-57
2023/12/19 06:48:07;;;;;;;16.38;10.15;;;2.20;99.90;;;;;;5011728;28;20045;-53
2023/12/19 06:50:34;;;;;;;18.60;10.38;;;2.20;99.90;;;;;;5008275;28;20739;-58
2023/12/19 06:53:02;;;;;;;18.00;11.02;;;2.20;99.90;;;;;;5009727;28;20049;-57
2023/12/19 06:55:30;;;;;;;17.17;10.93;;;2.20;99.90;;;;;;5017122;28;20053;-53
2023/12/19 06:57:58;;;;;;;20.08;11.30;;;2.20;99.90;;;;;;5010312;28;20130;-53
2023/12/19 07:00:27;;;;;;;16.88;9.77;;;2.20;99.90;;;;;;5016297;28;20065;-55
2023/12/19 07:02:55;;;;;;;16.27;10.35;;;2.20;99.90;;;;;;5017711;28;20141;-57
2023/12/19 07:05:22;;;;;;;14.90;9.88;;;2.20;99.90;;;;;;5017552;28;20125;-53
2023/12/19 07:07:51;;;;;;;18.35;10.07;;;2.20;99.90;;;;;;5003551;28;20097;-56
2023/12/19 07:10:19;;;;;;;19.85;9.70;;;2.20;99.90;;;;;;5012172;28;20085;-56
2023/12/19 07:12:46;;;;;;;31.13;11.02;;;2.20;99.90;;;;;;4996557;28;20046;-57
2023/12/19 07:15:14;;;;;;;25.38;10.68;;;2.30;99.90;;;;;;5008700;28;20486;-52
2023/12/19 07:17:43;;;;;;;20.45;11.85;;;2.30;99.90;;;;;;5007474;28;20521;-54
2023/12/19 07:20:10;;;;;;;21.58;11.77;;;2.30;99.90;;;;;;5015761;28;20049;-54
2023/12/19 07:22:37;;;;;;;18.80;10.75;;;2.40;99.90;;;;;;5018213;28;20045;-53
2023/12/19 07:25:05;;;;;;;16.80;10.23;;;2.40;99.90;;;;;;5015466;28;20275;-51
2023/12/19 07:27:34;;;;;;;24.50;11.57;;;2.50;99.90;;;;;;5020033;28;20562;-55
2023/12/19 07:30:05;;;;;;;25.52;10.98;;;2.50;99.90;;;;;;5021141;28;20057;-57
2023/12/19 07:32:33;;;;;;;17.30;11.63;;;2.60;99.90;;;;;;5018363;28;20107;-53
2023/12/19 07:35:01;;;;;;;18.88;10.65;;;2.60;99.90;;;;;;5014346;28;20449;-55
2023/12/19 07:37:28;;;;;;;22.50;12.48;;;2.60;99.90;;;;;;5017422;28;20076;-57
2023/12/19 07:39:55;;;;;;;22.58;10.52;;;2.70;99.90;;;;;;5014024;28;20121;-56
2023/12/19 07:42:22;;;;;;;15.93;9.77;;;2.80;99.90;;;;;;5015881;28;20093;-56
2023/12/19 07:44:51;;;;;;;18.67;10.32;;;2.80;99.90;;;;;;5012071;28;20273;-56
2023/12/19 07:47:18;;;;;;;20.75;9.70;;;2.90;99.90;;;;;;5016885;28;20434;-53
2023/12/19 07:49:46;;;;;;;16.73;9.55;;;2.90;99.90;;;;;;5016345;28;20053;-55
2023/12/19 07:52:14;;;;;;;18.33;9.43;;;2.90;99.90;;;;;;5014572;28;20034;-57
2023/12/19 07:54:41;;;;;;;18.88;10.45;;;3.00;99.90;;;;;;5015171;28;20578;-51
2023/12/19 07:57:08;;;;;;;15.48;9.30;;;3.00;99.90;;;;;;5011859;28;20506;-55
2023/12/19 07:59:36;;;;;;;15.45;9.95;;;3.00;99.90;;;;;;5016150;28;20052;-53
2023/12/19 08:02:03;;;;;;;14.68;9.15;;;3.00;99.90;;;;;;5017213;28;20080;-54
2023/12/19 08:04:31;;;;;;;14.88;9.15;;;3.00;99.90;;;;;;5013556;28;20494;-52
2023/12/19 08:06:58;;;;;;;14.10;9.23;;;3.10;99.90;;;;;;5008050;28;20046;-54
2023/12/19 08:09:28;;;;;;;20.27;8.93;;;3.10;99.90;;;;;;5013161;28;20053;-56
2023/12/19 08:11:59;;;;;;;21.63;11.88;;;3.10;99.90;;;;;;5011006;28;20076;-56
2023/12/19 08:14:27;;;;;;;16.63;9.17;;;3.20;99.90;;;;;;5036063;28;20049;-52
2023/12/19 08:16:54;;;;;;;15.57;9.27;;;3.20;99.90;;;;;;5017654;28;20319;-56
2023/12/19 08:19:22;;;;;;;16.05;9.70;;;3.20;99.90;;;;;;5008536;28;20046;-55
2023/12/19 08:21:51;;;;;;;21.30;10.38;;;3.20;99.90;;;;;;5014373;28;20111;-52
2023/12/19 08:24:18;;;;;;;14.80;9.15;;;3.30;99.90;;;;;;5010076;28;20141;-56
2023/12/19 08:26:47;;;;;;;16.65;10.20;;;3.30;99.90;;;;;;5011999;28;20045;-55
2023/12/19 08:29:15;;;;;;;16.05;9.70;;;3.30;99.90;;;;;;5011180;28;20052;-56
2023/12/19 08:31:43;;;;;;;19.92;9.45;;;3.30;99.90;;;;;;5013948;28;20243;-59
2023/12/19 08:34:11;;;;;;;17.92;9.57;;;3.30;99.90;;;;;;5019443;28;20041;-58
2023/12/19 08:36:38;;;;;;;18.05;9.98;;;3.30;99.90;;;;;;5019793;28;20422;-55
2023/12/19 08:39:07;;;;;;;15.50;9.57;;;3.30;99.90;;;;;;5017304;28;20050;-54
2023/12/19 08:41:37;;;;;;;22.58;10.30;;;3.30;99.90;;;;;;5018667;28;20049;-58
2023/12/19 08:44:04;;;;;;;14.70;9.80;;;3.40;99.90;;;;;;5017156;28;20046;-56
2023/12/19 08:46:32;;;;;;;17.30;10.35;;;3.30;99.90;;;;;;5024309;28;20124;-53
2023/12/19 08:49:01;;;;;;;16.63;9.63;;;3.30;99.90;;;;;;5014047;28;20042;-53
2023/12/19 08:51:28;;;;;;;18.90;10.30;;;3.40;99.90;;;;;;5011608;28;20109;-57
2023/12/19 08:53:56;;;;;;;16.20;9.25;;;3.30;99.90;;;;;;5014302;28;20061;-55
2023/12/19 08:56:23;;;;;;;17.45;10.50;;;3.30;99.90;;;;;;5019739;28;20056;-53
2023/12/19 08:58:50;;;;;;;16.83;8.98;;;3.20;99.90;;;;;;5002134;28;20038;-58
2023/12/19 09:01:17;;;;;;;15.60;9.07;;;3.20;99.90;;;;;;5016742;28;20052;-55
2023/12/19 09:03:45;;;;;;;22.58;13.80;;;3.20;99.90;;;;;;5016421;28;20041;-54
2023/12/19 09:06:12;;;;;;;20.38;11.07;;;3.20;99.90;;;;;;5015780;28;20457;-58
2023/12/19 09:08:39;;;;;;;16.15;9.93;;;3.20;99.90;;;;;;5024225;28;20077;-55
2023/12/19 09:11:06;;;;;;;14.27;8.95;;;3.40;99.90;;;;;;5005440;28;20046;-56
2023/12/19 09:13:38;;;;;;;16.40;8.85;;;3.50;99.90;;;;;;5003636;28;20050;-56
2023/12/19 09:16:08;;;;;;;16.25;9.38;;;3.60;99.90;;;;;;5015182;28;20931;-58
2023/12/19 09:18:35;;;;;;;17.88;10.73;;;3.80;99.90;;;;;;5012037;28;20049;-53
2023/12/19 09:21:03;;;;;;;14.73;8.95;;;3.80;99.90;;;;;;5019889;28;20595;-57
2023/12/19 09:23:30;;;;;;;14.07;9.32;;;3.90;99.90;;;;;;5017471;28;20523;-57
2023/12/19 09:25:58;;;;;;;17.60;9.85;;;4.00;99.90;;;;;;5015978;28;20053;-55
2023/12/19 09:28:29;;;;;;;17.38;9.63;;;4.20;99.90;;;;;;5041888;28;20050;-55
2023/12/19 09:30:57;;;;;;;16.13;10.00;;;4.40;99.90;;;;;;5017613;28;20470;-54
2023/12/19 09:33:24;;;;;;;15.00;9.73;;;4.50;99.90;;;;;;5041240;28;20507;-51
2023/12/19 09:35:52;;;;;;;15.43;10.23;;;4.60;99.90;;;;;;5020653;28;20045;-56
2023/12/19 09:38:20;;;;;;;15.98;10.00;;;4.70;99.90;;;;;;5020418;28;20056;-52
2023/12/19 09:40:47;;;;;;;16.95;10.20;;;4.80;99.90;;;;;;5008563;28;20117;-54
2023/12/19 09:43:14;;;;;;;15.82;9.60;;;5.00;99.90;;;;;;5009849;28;20470;-54
2023/12/19 09:45:41;;;;;;;13.23;9.07;;;5.10;99.90;;;;;;5010495;28;20430;-54
2023/12/19 09:48:13;;;;;;;17.00;10.32;;;5.20;99.90;;;;;;5009038;28;20442;-57
2023/12/19 09:50:45;;;;;;;14.87;9.77;;;5.10;99.90;;;;;;5020146;28;20451;-58
2023/12/19 09:53:14;;;;;;;12.90;8.87;;;5.20;99.90;;;;;;5014753;28;20132;-58
2023/12/19 09:55:44;;;;;;;14.13;9.27;;;5.20;99.90;;;;;;5014479;28;20529;-59
2023/12/19 09:58:12;;;;;;;17.67;9.63;;;5.30;99.90;;;;;;5013857;28;20115;-56
2023/12/19 10:00:44;;;;;;;11.35;8.13;;;5.40;99.90;;;;;;5009864;28;20037;-54
2023/12/19 10:03:13;;;;;;;11.93;8.35;;;5.50;99.90;;;;;;5004276;28;20058;-54
2023/12/19 10:05:44;;;;;;;14.27;9.18;;;5.60;99.90;;;;;;5003189;28;20042;-55
2023/12/19 10:08:13;;;;;;;17.63;10.40;;;5.70;99.90;;;;;;5038926;28;20045;-56
2023/12/19 10:10:54;;;;;;;14.85;9.57;;;5.80;99.90;;;;;;5007473;28;20157;-56
2023/12/19 10:13:33;;;;;;;15.50;9.67;;;5.90;99.90;;;;;;5009760;28;20107;-54
2023/12/19 10:16:06;;;;;;;13.25;9.00;;;5.90;99.90;;;;;;5010521;28;20305;-54
2023/12/19 10:18:55;;;;;;;12.70;8.88;;;5.80;99.90;;;;;;5034729;28;20034;-53
2023/12/19 10:21:28;;;;;;;14.32;9.25;;;6.00;99.90;;;;;;5005224;28;20095;-55
2023/12/19 10:24:09;;;;;;;20.42;12.05;;;6.20;99.90;;;;;;5005071;28;20050;-55
2023/12/19 10:26:38;;;;;;;13.68;9.43;;;6.30;99.90;;;;;;5007479;28;20391;-55
2023/12/19 10:29:05;;;;;;;14.07;9.40;;;6.40;99.90;;;;;;5006694;28;20050;-56
2023/12/19 10:31:34;;;;;;;12.85;9.15;;;6.60;99.90;;;;;;5002551;28;20075;-52
2023/12/19 10:34:04;;;;;;;14.82;8.90;;;6.80;99.90;;;;;;5006328;28;20046;-53
2023/12/19 10:36:33;;;;;;;13.68;9.40;;;7.00;99.90;;;;;;5013541;28;20061;-52
2023/12/19 10:39:03;;;;;;;14.27;9.30;;;7.10;99.90;;;;;;4989915;28;20392;-56
2023/12/19 10:41:32;;;;;;;14.60;9.73;;;7.10;99.90;;;;;;4990331;28;20097;-55
2023/12/19 10:44:01;;;;;;;15.80;9.75;;;7.10;99.90;;;;;;5006165;28;20038;-52
2023/12/19 10:46:30;;;;;;;13.02;9.52;;;7.00;99.90;;;;;;5006719;28;20490;-55
2023/12/19 10:48:59;;;;;;;15.07;10.07;;;7.10;99.90;;;;;;5002985;28;20154;-54
2023/12/19 10:51:33;;;;;;;13.52;9.73;;;7.20;99.90;;;;;;5036456;28;20108;-55
2023/12/19 10:54:10;;;;;;;14.40;9.82;;;6.90;99.90;;;;;;5005240;28;20042;-55
2023/12/19 10:56:59;;;;;;;13.10;9.15;;;6.90;99.90;;;;;;5006533;28;20411;-53
2023/12/19 10:59:49;;;;;;;16.00;10.02;;;6.60;99.90;;;;;;5006843;28;20038;-56
2023/12/19 11:02:51;;;;;;;13.57;9.25;;;6.50;99.90;;;;;;5005706;28;20050;-55
2023/12/19 11:05:36;;;;;;;15.27;10.20;;;6.40;99.90;;;;;;5004114;28;20046;-55
2023/12/19 11:08:08;;;;;;;15.95;10.50;;;6.30;99.90;;;;;;5006732;28;20123;-58
2023/12/19 11:10:40;;;;;;;16.08;10.38;;;6.30;99.90;;;;;;5004384;28;20064;-55
2023/12/19 11:13:10;;;;;;;18.17;10.80;;;6.10;99.90;;;;;;5005923;28;20135;-58
2023/12/19 11:15:44;;;;;;;18.23;10.35;;;6.10;99.90;;;;;;5006314;28;20054;-59
2023/12/19 11:18:47;;;;;;;15.95;10.95;;;5.90;99.90;;;;;;4988902;28;20038;-59
2023/12/19 11:21:21;;;;;;;18.70;10.30;;;5.90;99.90;;;;;;5003497;28;20037;-54
2023/12/19 11:24:01;;;;;;;23.95;11.95;;;5.80;99.90;;;;;;5006388;28;20042;-56
2023/12/19 11:26:39;;;;;;;19.20;11.38;;;5.90;99.90;;;;;;5006300;28;20069;-59
2023/12/19 11:29:06;;;;;;;21.92;10.88;;;6.20;99.90;;;;;;4995092;28;20042;-56
2023/12/19 11:31:35;;;;;;;19.88;11.77;;;6.40;99.90;;;;;;5014925;28;20482;-51
2023/12/19 11:34:23;;;;;;;17.15;11.18;;;6.60;99.90;;;;;;5007418;28;20125;-56
2023/12/19 11:37:06;;;;;;;18.65;11.45;;;6.80;99.90;;;;;;5006717;28;20033;-60
2023/12/19 11:39:39;;;;;;;;;;;6.70;99.90;;;;;;5006552;28;20042;-56
2023/12/19 11:42:07;;;;;;;18.25;10.63;;;7.20;99.90;;;;;;5006794;28;19925;-55
2023/12/19 11:44:38;;;;;;;17.67;11.43;;;7.40;99.90;;;;;;5000558;28;20048;-55
2023/12/19 11:47:16;;;;;;;20.83;11.15;;;7.40;99.90;;;;;;5006145;28;20054;-56
2023/12/19 11:49:44;;;;;;;18.67;11.90;;;7.50;99.90;;;;;;5007266;28;20439;-54
2023/12/19 11:52:37;;;;;;;18.60;10.63;;;7.50;99.90;;;;;;5002779;28;20038;-53
2023/12/19 11:55:06;;;;;;;19.40;11.48;;;7.60;99.90;;;;;;5005998;28;20470;-58
2023/12/19 11:57:34;;;;;;;16.00;10.45;;;7.80;99.90;;;;;;5005596;28;20050;-53
2023/12/19 12:00:02;;;;;;;14.55;10.23;;;7.60;99.90;;;;;;5002156;28;20391;-55
2023/12/19 12:02:37;;;;;;;17.55;10.52;;;7.70;99.90;;;;;;5030903;28;21542;-54
2023/12/19 12:05:23;;;;;;;16.40;10.90;;;7.50;99.90;;;;;;5004257;28;20140;-57
2023/12/19 12:07:51;;;;;;;14.68;9.55;;;7.10;99.90;;;;;;5008313;28;20042;-58
2023/12/19 12:10:23;;;;;;;18.30;10.57;;;7.20;99.90;;;;;;5011128;28;20054;-54
2023/12/19 12:12:51;;;;;;;12.27;9.00;;;7.20;99.90;;;;;;5017495;28;20053;-51
2023/12/19 12:15:21;;;;;;;13.38;9.32;;;7.40;99.90;;;;;;5017333;28;20049;-53
2023/12/19 12:17:49;;;;;;;15.55;9.30;;;7.50;99.90;;;;;;5011075;28;20132;-54
2023/12/19 12:20:26;;;;;;;14.10;9.45;;;8.10;99.90;;;;;;5004500;28;20041;-55
2023/12/19 12:22:56;;;;;;;14.23;9.35;;;8.30;99.90;;;;;;5005765;28;20061;-59
2023/12/19 12:25:24;;;;;;;18.05;9.52;;;8.30;99.90;;;;;;5007408;28;20423;-57
2023/12/19 12:28:07;;;;;;;14.57;8.30;;;8.40;99.90;;;;;;5006213;28;20049;-54
2023/12/19 12:30:36;;;;;;;11.95;9.32;;;8.00;99.90;;;;;;5005403;28;20045;-57
2023/12/19 12:33:05;;;;;;;10.07;8.23;;;7.60;99.90;;;;;;5002471;28;20045;-57
2023/12/19 12:35:35;;;;;;;11.27;7.93;;;7.50;99.90;;;;;;5011454;28;20042;-60
2023/12/19 12:38:10;;;;;;;10.15;7.80;;;7.30;99.90;;;;;;5006363;28;20050;-57
2023/12/19 12:40:38;;;;;;;11.07;7.90;;;7.20;99.90;;;;;;5005737;28;20054;-59
2023/12/19 12:43:33;;;;;;;10.50;7.25;;;7.10;99.90;;;;;;5004724;28;20045;-59
2023/12/19 12:46:07;;;;;;;11.55;7.47;;;7.00;99.90;;;;;;5003977;28;20077;-59
2023/12/19 12:48:36;;;;;;;10.55;7.93;;;7.10;99.90;;;;;;5003462;28;20077;-56
2023/12/19 12:51:07;;;;;;;10.88;7.20;;;7.00;99.90;;;;;;5005143;28;20037;-58